AirNav   Air Wisconsin pilot careers
 
 346 users online  

17A Trigger Gap Airport
Berryville, Arkansas, USA


FAA INFORMATION EFFECTIVE 01 FEBRUARY 2018

Location

FAA Identifier: 17A
Lat/Long: 36-19-40.0000N / 093-37-19.0000W
36-19.666667N / 093-37.316667W
36.3277778 / -93.6219444
(estimated)
Elevation: 1630 ft. / 497 m (estimated)
From city: 5 miles SW of BERRYVILLE, AR
Time zone: UTC +0 (year round; does not observe DST)
Zip code: 72616

Airport Operations

Airport use: Open to the public
Activation date: 09/2017
Control tower: no
ARTCC: MEMPHIS CENTER
FSS: JONESBORO FLIGHT SERVICE STATION
NOTAMs facility: JBR (NOTAM-D service not available)
Attendance: UNATTND
Segmented circle: no

Airport Communications

CTAF: 122.9

Nearby radio navigation aids

VOR radial/distance  VOR name  Freq  Var
HROr268/19.8HARRISON VOR/DME112.5004E
RZCr075/24.6RAZORBACK VORTAC116.4004E
DAKr051/32.7DRAKE VOR/DME115.2507E

Airport Services

Runway Information

Runway 10/28

Dimensions: 3000 x 75 ft. / 914 x 23 m
Surface: turf
RUNWAY 10  RUNWAY 28
Traffic pattern: rightright

Airport Ownership and Management from official FAA records

Ownership: Publicly-owned
Owner: RECREATIONAL AVIATION FOUNDATION
1711 W COLLEGE STREET
BOZEMAN, MT 59715
Phone 406-582-1723
Manager: CHAD COX
3404 CARDINAL LANE
BENTONVILLE, AR 72712
Phone 501-732-0658

Instrument Procedures

There are no published instrument procedures at 17A.

Some nearby airports with instrument procedures:

4M1 - Carroll County Airport (3 nm N)
H34 - Huntsville Municipal Airport (16 nm SW)
KHRO - Boone County Airport (23 nm E)
KROG - Rogers Executive Airport - Carter Field (24 nm W)
KBBG - Branson Airport (24 nm NE)
 
Loc | Ops | Rwys | IFR | FBO | Links
Com | Nav | Svcs | Stats | Notes

AirNav Hotels Sweepstakes
 
Aerial photo
No photo
 
Airport distance calculator
Flying to Trigger Gap Airport? Find the distance to fly.

From to 17A

Sunrise and sunset
Times for 21-Feb-2018
 Zulu (UTC)
Morning civil twilight12:30
Sunrise12:56
Sunset00:00
Evening civil twilight00:26

Current date and time
Zulu (UTC)  21-Feb-2018 09:57:45
 
METAR
KROG 
22nm W 
210303Z AUTO 33011KT 10SM -RA OVC007 01/01 A3018 RMK AO2 CIG 005V010 P0000
KHRO 
23nm E 
210953Z AUTO 29007KT 10SM BKN007 OVC018 00/M01 A3029 RMK AO2 FZRAE34 SLP258 T00001006 PNO $
KBBG 
24nm NE 
210935Z AUTO 33007KT 10SM OVC005 M01/M02 A3029 RMK AO2
KFWB 
25nm NE 
210935Z AUTO 04006G14KT 10SM M02/M02 A3029 RMK AO2
KASG 
26nm W 
210248Z 32008KT 8SM OVC006 03/03 A3016
KVBT 
29nm W 
210856Z AUTO 02012KT 10SM OVC006 M02/M03 A3029 RMK AO2 SLP270 T10171028 50010 FZRANO
KFYV 
32nm SW 
210953Z AUTO 02004KT 10SM OVC007 00/M01 A3028 RMK AO2 SLP258 T00001006
KXNA 
33nm W 
210953Z AUTO 02011KT 6SM BR OVC006 M02/M02 A3030 RMK AO2 SLP268 T10171022
KHFJ 
39nm NW 
210930Z AUTO 36006KT 10SM OVC005 M03/M03 A3032 RMK AO2
KSLG 
42nm W 
210856Z AUTO 01012KT 8SM OVC008 M02/M03 A3028 RMK AO2 SLP262 6//// T10171028 51016 FZRANO
TAF
KROG 
22nm W 
210542Z 2106/2206 01013G21KT P6SM OVC015 TEMPO 2106/2109 5SM -FZRA BR OVC008 FM211800 04012G19KT P6SM OVC015 PROB30 2118/2124 5SM -FZRA BR OVC008 FM220000 05009KT 5SM -FZRA BR OVC008
KHRO 
23nm E 
210639Z 2107/2206 33009G16KT P6SM -RA BKN007 OVC025 TEMPO 2107/2110 4SM RA BR BKN005 FM211000 32009G16KT P6SM -RA BKN005 OVC020 TEMPO 2110/2113 4SM RA BR OVC003 FM211300 32010G18KT 4SM -RA BR VCTS BKN005 OVC025CB FM211600 01009G15KT 5SM -RA BR SCT005 OVC015
KBBG 
24nm NE 
210648Z 2107/2206 32009G16KT P6SM -FZRA BKN006 OVC012 FM210900 35008KT P6SM OVC010 FM212300 06006KT P6SM VCSH OVC010 FM220000 06007KT P6SM OVC008
NOTAMs
Click for the latest NOTAMs
NOTAMs are issued by the DoD/FAA and will open in a separate window not controlled by AirNav.

 

 
 

Would you like to see your business listed on this page?

 If your business provides an interesting product or service to pilots, flight crews, aircraft, or users of the Trigger Gap Airport, you should consider listing it here.  To start the listing process, click on the button below
 
Add a business
 

Other Pages about Trigger Gap Airport

Update a link
 
Copyright © AirNav, LLC. All rights reserved. Privacy Policy  Contact